sensor_id;sensor_type;location;lat;lon;timestamp;temperature;humidity
5588;DHT22;2816;49.778;9.986;2023-05-23T00:01:38;19.10;99.90
5588;DHT22;2816;49.778;9.986;2023-05-23T00:04:05;19.20;99.90
5588;DHT22;2816;49.778;9.986;2023-05-23T00:06:33;19.10;99.90
5588;DHT22;2816;49.778;9.986;2023-05-23T00:09:00;19.00;99.90
5588;DHT22;2816;49.778;9.986;2023-05-23T00:11:29;19.00;99.90
5588;DHT22;2816;49.778;9.986;2023-05-23T00:13:56;19.00;99.90
5588;DHT22;2816;49.778;9.986;2023-05-23T00:16:25;19.00;99.90
5588;DHT22;2816;49.778;9.986;2023-05-23T00:18:52;18.90;99.90
5588;DHT22;2816;49.778;9.986;2023-05-23T00:21:22;18.90;99.90
5588;DHT22;2816;49.778;9.986;2023-05-23T00:23:48;18.80;99.90
5588;DHT22;2816;49.778;9.986;2023-05-23T00:26:15;18.70;99.90
5588;DHT22;2816;49.778;9.986;2023-05-23T00:28:44;18.70;99.90
5588;DHT22;2816;49.778;9.986;2023-05-23T00:31:11;18.60;99.90
5588;DHT22;2816;49.778;9.986;2023-05-23T00:33:37;18.60;99.90
5588;DHT22;2816;49.778;9.986;2023-05-23T00:36:05;18.50;99.90
5588;DHT22;2816;49.778;9.986;2023-05-23T00:38:32;18.50;99.90
5588;DHT22;2816;49.778;9.986;2023-05-23T00:40:59;18.50;99.90
5588;DHT22;2816;49.778;9.986;2023-05-23T00:43:26;18.50;99.90
5588;DHT22;2816;49.778;9.986;2023-05-23T00:45:55;18.60;99.90
5588;DHT22;2816;49.778;9.986;2023-05-23T00:48:22;18.50;99.90
5588;DHT22;2816;49.778;9.986;2023-05-23T00:50:49;18.50;99.90
5588;DHT22;2816;49.778;9.986;2023-05-23T00:53:16;18.50;99.90
5588;DHT22;2816;49.778;9.986;2023-05-23T00:55:43;18.50;99.90
5588;DHT22;2816;49.778;9.986;2023-05-23T00:58:11;18.60;99.90
5588;DHT22;2816;49.778;9.986;2023-05-23T01:00:40;18.60;99.90
5588;DHT22;2816;49.778;9.986;2023-05-23T01:03:08;18.60;99.90
5588;DHT22;2816;49.778;9.986;2023-05-23T01:05:42;18.60;99.90
5588;DHT22;2816;49.778;9.986;2023-05-23T01:08:09;18.60;99.90
5588;DHT22;2816;49.778;9.986;2023-05-23T01:10:37;18.50;99.90
5588;DHT22;2816;49.778;9.986;2023-05-23T01:13:12;18.50;99.90
5588;DHT22;2816;49.778;9.986;2023-05-23T01:15:46;18.40;99.90
5588;DHT22;2816;49.778;9.986;2023-05-23T01:18:26;18.40;99.90
5588;DHT22;2816;49.778;9.986;2023-05-23T01:20:58;18.40;99.90
5588;DHT22;2816;49.778;9.986;2023-05-23T01:23:54;18.40;99.90
5588;DHT22;2816;49.778;9.986;2023-05-23T01:26:49;18.40;99.90
5588;DHT22;2816;49.778;9.986;2023-05-23T01:29:27;18.40;99.90
5588;DHT22;2816;49.778;9.986;2023-05-23T01:31:56;18.50;99.90
5588;DHT22;2816;49.778;9.986;2023-05-23T01:34:24;18.50;99.90
5588;DHT22;2816;49.778;9.986;2023-05-23T01:36:54;18.50;99.90
5588;DHT22;2816;49.778;9.986;2023-05-23T01:39:21;18.50;99.90
5588;DHT22;2816;49.778;9.986;2023-05-23T01:41:49;18.40;99.90
5588;DHT22;2816;49.778;9.986;2023-05-23T01:44:17;18.40;99.90
5588;DHT22;2816;49.778;9.986;2023-05-23T01:46:45;18.30;99.90
5588;DHT22;2816;49.778;9.986;2023-05-23T01:49:14;18.20;99.90
5588;DHT22;2816;49.778;9.986;2023-05-23T01:51:42;18.20;99.90
5588;DHT22;2816;49.778;9.986;2023-05-23T01:54:09;18.10;99.90
5588;DHT22;2816;49.778;9.986;2023-05-23T01:56:37;18.10;99.90
5588;DHT22;2816;49.778;9.986;2023-05-23T01:59:05;18.20;99.90
5588;DHT22;2816;49.778;9.986;2023-05-23T02:01:33;18.30;99.90
5588;DHT22;2816;49.778;9.986;2023-05-23T02:04:01;18.20;99.90
5588;DHT22;2816;49.778;9.986;2023-05-23T02:06:29;18.10;99.90
5588;DHT22;2816;49.778;9.986;2023-05-23T02:08:56;18.10;99.90
5588;DHT22;2816;49.778;9.986;2023-05-23T02:11:23;18.10;99.90
5588;DHT22;2816;49.778;9.986;2023-05-23T02:13:51;18.00;99.90
5588;DHT22;2816;49.778;9.986;2023-05-23T02:16:18;18.00;99.90
5588;DHT22;2816;49.778;9.986;2023-05-23T02:18:46;17.90;99.90
5588;DHT22;2816;49.778;9.986;2023-05-23T02:21:15;17.80;99.90
5588;DHT22;2816;49.778;9.986;2023-05-23T02:23:41;17.80;99.90
5588;DHT22;2816;49.778;9.986;2023-05-23T02:26:08;17.80;99.90
5588;DHT22;2816;49.778;9.986;2023-05-23T02:28:35;17.70;99.90
5588;DHT22;2816;49.778;9.986;2023-05-23T02:31:02;17.70;99.90
5588;DHT22;2816;49.778;9.986;2023-05-23T02:33:29;17.70;99.90
5588;DHT22;2816;49.778;9.986;2023-05-23T02:35:56;17.70;99.90
5588;DHT22;2816;49.778;9.986;2023-05-23T02:38:24;17.70;99.90
5588;DHT22;2816;49.778;9.986;2023-05-23T02:40:52;17.70;99.90
5588;DHT22;2816;49.778;9.986;2023-05-23T02:43:21;17.70;99.90
5588;DHT22;2816;49.778;9.986;2023-05-23T02:45:48;17.70;99.90
5588;DHT22;2816;49.778;9.986;2023-05-23T02:48:15;17.70;99.90
5588;DHT22;2816;49.778;9.986;2023-05-23T02:50:42;17.60;99.90
5588;DHT22;2816;49.778;9.986;2023-05-23T02:53:09;17.70;99.90
5588;DHT22;2816;49.778;9.986;2023-05-23T02:55:37;17.80;99.90
5588;DHT22;2816;49.778;9.986;2023-05-23T02:58:04;17.70;99.90
5588;DHT22;2816;49.778;9.986;2023-05-23T03:00:31;17.70;99.90
5588;DHT22;2816;49.778;9.986;2023-05-23T03:02:58;17.60;99.90
5588;DHT22;2816;49.778;9.986;2023-05-23T03:05:25;17.70;99.90
5588;DHT22;2816;49.778;9.986;2023-05-23T03:07:52;17.70;99.90
5588;DHT22;2816;49.778;9.986;2023-05-23T03:10:19;17.70;99.90
5588;DHT22;2816;49.778;9.986;2023-05-23T03:12:47;17.70;99.90
5588;DHT22;2816;49.778;9.986;2023-05-23T03:15:14;17.60;99.90
5588;DHT22;2816;49.778;9.986;2023-05-23T03:17:41;17.60;99.90
5588;DHT22;2816;49.778;9.986;2023-05-23T03:20:09;17.50;99.90
5588;DHT22;2816;49.778;9.986;2023-05-23T03:22:36;17.50;99.90
5588;DHT22;2816;49.778;9.986;2023-05-23T03:25:04;17.60;99.90
5588;DHT22;2816;49.778;9.986;2023-05-23T03:27:31;17.70;99.90
5588;DHT22;2816;49.778;9.986;2023-05-23T03:29:59;17.60;99.90
5588;DHT22;2816;49.778;9.986;2023-05-23T03:32:26;17.50;99.90
5588;DHT22;2816;49.778;9.986;2023-05-23T03:34:53;17.50;99.90
5588;DHT22;2816;49.778;9.986;2023-05-23T03:37:20;17.50;99.90
5588;DHT22;2816;49.778;9.986;2023-05-23T03:39:47;17.50;99.90
5588;DHT22;2816;49.778;9.986;2023-05-23T03:42:14;17.50;99.90
5588;DHT22;2816;49.778;9.986;2023-05-23T03:44:41;17.50;99.90
5588;DHT22;2816;49.778;9.986;2023-05-23T03:47:09;17.40;99.90
5588;DHT22;2816;49.778;9.986;2023-05-23T03:49:36;17.40;99.90
5588;DHT22;2816;49.778;9.986;2023-05-23T03:52:03;17.30;99.90
5588;DHT22;2816;49.778;9.986;2023-05-23T03:54:30;17.30;99.90
5588;DHT22;2816;49.778;9.986;2023-05-23T03:56:57;17.30;99.90
5588;DHT22;2816;49.778;9.986;2023-05-23T03:59:24;17.40;99.90
5588;DHT22;2816;49.778;9.986;2023-05-23T04:01:51;17.50;99.90
5588;DHT22;2816;49.778;9.986;2023-05-23T04:04:19;17.50;99.90
5588;DHT22;2816;49.778;9.986;2023-05-23T04:06:46;17.50;99.90
5588;DHT22;2816;49.778;9.986;2023-05-23T04:09:13;17.40;99.90
5588;DHT22;2816;49.778;9.986;2023-05-23T04:11:40;17.40;99.90
5588;DHT22;2816;49.778;9.986;2023-05-23T04:14:07;17.50;99.90
5588;DHT22;2816;49.778;9.986;2023-05-23T04:16:35;17.60;99.90
5588;DHT22;2816;49.778;9.986;2023-05-23T04:19:03;17.60;99.90
5588;DHT22;2816;49.778;9.986;2023-05-23T04:21:31;17.60;99.90
5588;DHT22;2816;49.778;9.986;2023-05-23T04:23:59;17.50;99.90
5588;DHT22;2816;49.778;9.986;2023-05-23T04:26:25;17.50;99.90
5588;DHT22;2816;49.778;9.986;2023-05-23T04:28:53;17.50;99.90
5588;DHT22;2816;49.778;9.986;2023-05-23T04:31:21;17.50;99.90
5588;DHT22;2816;49.778;9.986;2023-05-23T04:33:48;17.50;99.90
5588;DHT22;2816;49.778;9.986;2023-05-23T04:36:15;17.50;99.90
5588;DHT22;2816;49.778;9.986;2023-05-23T04:38:44;17.50;99.90
5588;DHT22;2816;49.778;9.986;2023-05-23T04:41:11;17.40;99.90
5588;DHT22;2816;49.778;9.986;2023-05-23T04:43:37;17.40;99.90
5588;DHT22;2816;49.778;9.986;2023-05-23T04:46:07;17.40;99.90
5588;DHT22;2816;49.778;9.986;2023-05-23T04:48:34;17.30;99.90
5588;DHT22;2816;49.778;9.986;2023-05-23T04:51:03;17.40;99.90
5588;DHT22;2816;49.778;9.986;2023-05-23T04:53:32;17.40;99.90
5588;DHT22;2816;49.778;9.986;2023-05-23T04:56:01;17.50;99.90
5588;DHT22;2816;49.778;9.986;2023-05-23T04:58:28;17.60;99.90
5588;DHT22;2816;49.778;9.986;2023-05-23T05:00:56;17.70;99.90
5588;DHT22;2816;49.778;9.986;2023-05-23T05:03:23;17.60;99.90
5588;DHT22;2816;49.778;9.986;2023-05-23T05:05:51;17.50;99.90
5588;DHT22;2816;49.778;9.986;2023-05-23T05:08:18;17.40;99.90
5588;DHT22;2816;49.778;9.986;2023-05-23T05:10:45;17.40;99.90
5588;DHT22;2816;49.778;9.986;2023-05-23T05:13:13;17.40;99.90
5588;DHT22;2816;49.778;9.986;2023-05-23T05:15:40;17.30;99.90
5588;DHT22;2816;49.778;9.986;2023-05-23T05:18:07;17.30;99.90
5588;DHT22;2816;49.778;9.986;2023-05-23T05:20:34;17.20;99.90
5588;DHT22;2816;49.778;9.986;2023-05-23T05:23:01;17.30;99.90
5588;DHT22;2816;49.778;9.986;2023-05-23T05:25:28;17.50;99.90
5588;DHT22;2816;49.778;9.986;2023-05-23T05:27:57;17.40;99.90
5588;DHT22;2816;49.778;9.986;2023-05-23T05:30:25;17.20;99.90
5588;DHT22;2816;49.778;9.986;2023-05-23T05:32:52;17.20;99.90
5588;DHT22;2816;49.778;9.986;2023-05-23T05:35:22;17.20;99.90
5588;DHT22;2816;49.778;9.986;2023-05-23T05:37:49;17.20;99.90
5588;DHT22;2816;49.778;9.986;2023-05-23T05:40:16;17.40;99.90
5588;DHT22;2816;49.778;9.986;2023-05-23T05:42:43;17.30;99.90
5588;DHT22;2816;49.778;9.986;2023-05-23T05:45:10;17.20;99.90
5588;DHT22;2816;49.778;9.986;2023-05-23T05:47:38;17.30;99.90
5588;DHT22;2816;49.778;9.986;2023-05-23T05:50:07;17.20;99.90
5588;DHT22;2816;49.778;9.986;2023-05-23T05:52:35;17.20;99.90
5588;DHT22;2816;49.778;9.986;2023-05-23T05:55:05;17.20;99.90
5588;DHT22;2816;49.778;9.986;2023-05-23T05:57:32;17.40;99.90
5588;DHT22;2816;49.778;9.986;2023-05-23T05:59:59;17.40;99.90
5588;DHT22;2816;49.778;9.986;2023-05-23T06:02:26;17.50;99.90
5588;DHT22;2816;49.778;9.986;2023-05-23T06:04:54;17.50;99.90
5588;DHT22;2816;49.778;9.986;2023-05-23T06:07:21;17.60;99.90
5588;DHT22;2816;49.778;9.986;2023-05-23T06:09:48;17.60;99.90
5588;DHT22;2816;49.778;9.986;2023-05-23T06:12:15;17.60;99.90
5588;DHT22;2816;49.778;9.986;2023-05-23T06:14:42;17.70;99.90
5588;DHT22;2816;49.778;9.986;2023-05-23T06:17:08;17.70;99.90
5588;DHT22;2816;49.778;9.986;2023-05-23T06:19:35;17.70;99.90
5588;DHT22;2816;49.778;9.986;2023-05-23T06:22:04;17.70;99.90
5588;DHT22;2816;49.778;9.986;2023-05-23T06:24:31;17.70;99.90
5588;DHT22;2816;49.778;9.986;2023-05-23T06:26:58;17.60;99.90
5588;DHT22;2816;49.778;9.986;2023-05-23T06:29:25;17.60;99.90
5588;DHT22;2816;49.778;9.986;2023-05-23T06:31:52;17.60;99.90
5588;DHT22;2816;49.778;9.986;2023-05-23T06:34:19;17.60;99.90
5588;DHT22;2816;49.778;9.986;2023-05-23T06:36:46;17.70;99.90
5588;DHT22;2816;49.778;9.986;2023-05-23T06:39:14;17.60;99.90
5588;DHT22;2816;49.778;9.986;2023-05-23T06:41:42;17.70;99.90
5588;DHT22;2816;49.778;9.986;2023-05-23T06:44:08;17.70;99.90
5588;DHT22;2816;49.778;9.986;2023-05-23T06:46:35;17.80;99.90
5588;DHT22;2816;49.778;9.986;2023-05-23T06:49:02;17.80;99.90
5588;DHT22;2816;49.778;9.986;2023-05-23T06:51:29;17.70;99.90
5588;DHT22;2816;49.778;9.986;2023-05-23T06:53:56;17.60;99.90
5588;DHT22;2816;49.778;9.986;2023-05-23T06:56:24;17.60;99.90
5588;DHT22;2816;49.778;9.986;2023-05-23T06:58:51;17.60;99.90
5588;DHT22;2816;49.778;9.986;2023-05-23T07:01:18;17.50;99.90
5588;DHT22;2816;49.778;9.986;2023-05-23T07:03:45;17.60;99.90
5588;DHT22;2816;49.778;9.986;2023-05-23T07:06:12;17.50;99.90
5588;DHT22;2816;49.778;9.986;2023-05-23T07:08:39;17.50;99.90
5588;DHT22;2816;49.778;9.986;2023-05-23T07:11:06;17.50;99.90
5588;DHT22;2816;49.778;9.986;2023-05-23T07:13:34;17.50;99.90
5588;DHT22;2816;49.778;9.986;2023-05-23T07:16:01;17.40;99.90
5588;DHT22;2816;49.778;9.986;2023-05-23T07:18:28;17.50;99.90
5588;DHT22;2816;49.778;9.986;2023-05-23T07:20:55;17.70;99.90
5588;DHT22;2816;49.778;9.986;2023-05-23T07:23:22;17.60;99.90
5588;DHT22;2816;49.778;9.986;2023-05-23T07:25:49;17.70;99.90
5588;DHT22;2816;49.778;9.986;2023-05-23T07:28:16;17.60;99.90
5588;DHT22;2816;49.778;9.986;2023-05-23T07:30:45;17.70;99.90
5588;DHT22;2816;49.778;9.986;2023-05-23T07:33:11;17.50;99.90
5588;DHT22;2816;49.778;9.986;2023-05-23T07:35:38;17.70;99.90
5588;DHT22;2816;49.778;9.986;2023-05-23T07:38:06;17.60;99.90
5588;DHT22;2816;49.778;9.986;2023-05-23T07:40:33;17.50;99.90
5588;DHT22;2816;49.778;9.986;2023-05-23T07:43:00;17.70;99.90
5588;DHT22;2816;49.778;9.986;2023-05-23T07:45:27;17.70;99.90
5588;DHT22;2816;49.778;9.986;2023-05-23T07:47:56;17.80;99.90
5588;DHT22;2816;49.778;9.986;2023-05-23T07:50:22;17.90;99.90
5588;DHT22;2816;49.778;9.986;2023-05-23T07:52:52;17.60;99.90
5588;DHT22;2816;49.778;9.986;2023-05-23T07:55:19;17.90;99.90
5588;DHT22;2816;49.778;9.986;2023-05-23T07:57:46;18.10;99.90
5588;DHT22;2816;49.778;9.986;2023-05-23T08:00:14;17.80;99.90
5588;DHT22;2816;49.778;9.986;2023-05-23T08:02:41;17.70;99.90
5588;DHT22;2816;49.778;9.986;2023-05-23T08:05:10;17.80;99.90
5588;DHT22;2816;49.778;9.986;2023-05-23T08:07:37;17.80;99.90
5588;DHT22;2816;49.778;9.986;2023-05-23T08:10:05;17.70;99.90
5588;DHT22;2816;49.778;9.986;2023-05-23T08:12:32;17.70;99.90
5588;DHT22;2816;49.778;9.986;2023-05-23T08:14:59;17.70;99.90
5588;DHT22;2816;49.778;9.986;2023-05-23T08:17:26;17.80;99.90
5588;DHT22;2816;49.778;9.986;2023-05-23T08:19:53;17.90;99.90
5588;DHT22;2816;49.778;9.986;2023-05-23T08:22:21;17.60;99.90
5588;DHT22;2816;49.778;9.986;2023-05-23T08:24:48;17.70;99.90
5588;DHT22;2816;49.778;9.986;2023-05-23T08:27:15;17.70;99.90
5588;DHT22;2816;49.778;9.986;2023-05-23T08:29:41;17.80;99.90
5588;DHT22;2816;49.778;9.986;2023-05-23T08:32:08;17.80;99.90
5588;DHT22;2816;49.778;9.986;2023-05-23T08:34:35;17.80;99.90
5588;DHT22;2816;49.778;9.986;2023-05-23T08:37:02;17.60;99.90
5588;DHT22;2816;49.778;9.986;2023-05-23T08:39:31;17.50;99.90
5588;DHT22;2816;49.778;9.986;2023-05-23T08:41:58;17.40;99.90
5588;DHT22;2816;49.778;9.986;2023-05-23T08:44:24;17.50;99.90
5588;DHT22;2816;49.778;9.986;2023-05-23T08:46:52;17.70;99.90
5588;DHT22;2816;49.778;9.986;2023-05-23T08:49:21;17.90;99.90
5588;DHT22;2816;49.778;9.986;2023-05-23T08:51:50;18.00;99.90
5588;DHT22;2816;49.778;9.986;2023-05-23T08:54:18;18.10;99.90
5588;DHT22;2816;49.778;9.986;2023-05-23T08:56:48;18.20;99.90
5588;DHT22;2816;49.778;9.986;2023-05-23T08:59:16;18.20;99.90
5588;DHT22;2816;49.778;9.986;2023-05-23T09:01:45;18.30;99.90
5588;DHT22;2816;49.778;9.986;2023-05-23T09:04:13;18.40;99.90
5588;DHT22;2816;49.778;9.986;2023-05-23T09:06:40;18.50;99.90
5588;DHT22;2816;49.778;9.986;2023-05-23T09:09:07;18.60;99.90
5588;DHT22;2816;49.778;9.986;2023-05-23T09:11:35;18.60;99.90
5588;DHT22;2816;49.778;9.986;2023-05-23T09:14:04;18.50;99.90
5588;DHT22;2816;49.778;9.986;2023-05-23T09:16:32;18.60;99.90
5588;DHT22;2816;49.778;9.986;2023-05-23T09:19:09;18.70;99.90
5588;DHT22;2816;49.778;9.986;2023-05-23T09:21:36;18.70;99.90
5588;DHT22;2816;49.778;9.986;2023-05-23T09:24:07;18.80;99.90
5588;DHT22;2816;49.778;9.986;2023-05-23T09:26:34;19.10;99.90
5588;DHT22;2816;49.778;9.986;2023-05-23T09:29:05;19.20;99.90
5588;DHT22;2816;49.778;9.986;2023-05-23T09:31:32;19.30;99.90
5588;DHT22;2816;49.778;9.986;2023-05-23T09:34:00;19.10;99.90
5588;DHT22;2816;49.778;9.986;2023-05-23T09:36:28;19.40;99.90
5588;DHT22;2816;49.778;9.986;2023-05-23T09:39:01;19.40;99.90
5588;DHT22;2816;49.778;9.986;2023-05-23T09:41:29;19.20;99.90
5588;DHT22;2816;49.778;9.986;2023-05-23T09:43:58;19.10;99.90
5588;DHT22;2816;49.778;9.986;2023-05-23T09:46:34;19.10;99.90
5588;DHT22;2816;49.778;9.986;2023-05-23T09:49:01;19.00;99.90
5588;DHT22;2816;49.778;9.986;2023-05-23T09:51:28;19.10;99.90
5588;DHT22;2816;49.778;9.986;2023-05-23T09:53:55;18.90;99.90
5588;DHT22;2816;49.778;9.986;2023-05-23T09:56:23;19.00;99.90
5588;DHT22;2816;49.778;9.986;2023-05-23T09:58:50;18.90;99.90
5588;DHT22;2816;49.778;9.986;2023-05-23T10:01:18;18.90;99.90
5588;DHT22;2816;49.778;9.986;2023-05-23T10:03:51;18.70;99.90
5588;DHT22;2816;49.778;9.986;2023-05-23T10:06:24;18.60;99.90
5588;DHT22;2816;49.778;9.986;2023-05-23T10:08:56;18.60;99.90
5588;DHT22;2816;49.778;9.986;2023-05-23T10:12:15;18.70;99.90
5588;DHT22;2816;49.778;9.986;2023-05-23T10:14:52;18.80;99.90
5588;DHT22;2816;49.778;9.986;2023-05-23T10:17:25;19.00;99.90
5588;DHT22;2816;49.778;9.986;2023-05-23T10:19:59;19.00;99.90
5588;DHT22;2816;49.778;9.986;2023-05-23T10:22:33;18.90;99.90
5588;DHT22;2816;49.778;9.986;2023-05-23T10:25:01;18.90;99.90
5588;DHT22;2816;49.778;9.986;2023-05-23T10:27:29;18.80;99.90
5588;DHT22;2816;49.778;9.986;2023-05-23T10:29:56;18.70;99.90
5588;DHT22;2816;49.778;9.986;2023-05-23T10:32:24;18.70;99.90
5588;DHT22;2816;49.778;9.986;2023-05-23T10:34:58;18.60;99.90
5588;DHT22;2816;49.778;9.986;2023-05-23T10:37:32;18.80;99.90
5588;DHT22;2816;49.778;9.986;2023-05-23T10:40:06;18.70;99.90
5588;DHT22;2816;49.778;9.986;2023-05-23T10:42:44;18.70;99.90
5588;DHT22;2816;49.778;9.986;2023-05-23T10:45:14;18.60;99.90
5588;DHT22;2816;49.778;9.986;2023-05-23T10:47:41;18.70;99.90
5588;DHT22;2816;49.778;9.986;2023-05-23T10:50:13;18.70;99.90
5588;DHT22;2816;49.778;9.986;2023-05-23T10:52:40;18.60;99.90
5588;DHT22;2816;49.778;9.986;2023-05-23T10:55:12;18.60;99.90
5588;DHT22;2816;49.778;9.986;2023-05-23T10:57:39;18.70;99.90
5588;DHT22;2816;49.778;9.986;2023-05-23T11:00:12;18.60;99.90
5588;DHT22;2816;49.778;9.986;2023-05-23T11:02:46;18.50;99.90
5588;DHT22;2816;49.778;9.986;2023-05-23T11:05:21;18.50;99.90
5588;DHT22;2816;49.778;9.986;2023-05-23T11:08:15;18.50;99.90
5588;DHT22;2816;49.778;9.986;2023-05-23T11:10:51;18.70;99.90
5588;DHT22;2816;49.778;9.986;2023-05-23T11:13:19;18.60;99.90
5588;DHT22;2816;49.778;9.986;2023-05-23T11:15:47;18.70;99.90
5588;DHT22;2816;49.778;9.986;2023-05-23T11:18:22;18.70;99.90
5588;DHT22;2816;49.778;9.986;2023-05-23T11:20:54;18.70;99.90
5588;DHT22;2816;49.778;9.986;2023-05-23T11:23:39;18.60;99.90
5588;DHT22;2816;49.778;9.986;2023-05-23T11:26:29;18.70;99.90
5588;DHT22;2816;49.778;9.986;2023-05-23T11:28:57;18.60;99.90
5588;DHT22;2816;49.778;9.986;2023-05-23T11:31:24;18.50;99.90
5588;DHT22;2816;49.778;9.986;2023-05-23T11:33:51;18.50;99.90
5588;DHT22;2816;49.778;9.986;2023-05-23T11:36:20;18.60;99.90
5588;DHT22;2816;49.778;9.986;2023-05-23T11:38:47;18.60;99.90
5588;DHT22;2816;49.778;9.986;2023-05-23T11:41:14;18.70;99.90
5588;DHT22;2816;49.778;9.986;2023-05-23T11:43:48;18.80;99.90
5588;DHT22;2816;49.778;9.986;2023-05-23T11:46:16;18.90;99.90
5588;DHT22;2816;49.778;9.986;2023-05-23T11:48:44;19.00;99.90
5588;DHT22;2816;49.778;9.986;2023-05-23T11:51:11;19.00;99.90
5588;DHT22;2816;49.778;9.986;2023-05-23T11:53:40;19.00;99.90
5588;DHT22;2816;49.778;9.986;2023-05-23T11:56:07;19.00;99.90
5588;DHT22;2816;49.778;9.986;2023-05-23T11:58:35;18.70;99.90
5588;DHT22;2816;49.778;9.986;2023-05-23T12:01:03;18.70;99.90
5588;DHT22;2816;49.778;9.986;2023-05-23T12:03:31;18.60;99.90
5588;DHT22;2816;49.778;9.986;2023-05-23T12:05:58;18.70;99.90
5588;DHT22;2816;49.778;9.986;2023-05-23T12:08:26;18.70;99.90
5588;DHT22;2816;49.778;9.986;2023-05-23T12:10:56;18.60;99.90
5588;DHT22;2816;49.778;9.986;2023-05-23T12:13:24;18.80;99.90
5588;DHT22;2816;49.778;9.986;2023-05-23T12:15:53;18.80;99.90
5588;DHT22;2816;49.778;9.986;2023-05-23T12:18:21;18.60;99.90
5588;DHT22;2816;49.778;9.986;2023-05-23T12:20:48;18.70;99.90
5588;DHT22;2816;49.778;9.986;2023-05-23T12:23:21;18.70;99.90
5588;DHT22;2816;49.778;9.986;2023-05-23T12:25:52;18.70;99.90
5588;DHT22;2816;49.778;9.986;2023-05-23T12:28:21;18.60;99.90
5588;DHT22;2816;49.778;9.986;2023-05-23T12:31:08;18.60;99.90
5588;DHT22;2816;49.778;9.986;2023-05-23T12:33:37;18.50;99.90
5588;DHT22;2816;49.778;9.986;2023-05-23T12:36:05;18.60;99.90
5588;DHT22;2816;49.778;9.986;2023-05-23T12:38:33;18.50;99.90
5588;DHT22;2816;49.778;9.986;2023-05-23T12:41:10;18.40;99.90
5588;DHT22;2816;49.778;9.986;2023-05-23T12:43:39;18.40;99.90
5588;DHT22;2816;49.778;9.986;2023-05-23T12:46:06;18.50;99.90
5588;DHT22;2816;49.778;9.986;2023-05-23T12:48:33;18.50;99.90
5588;DHT22;2816;49.778;9.986;2023-05-23T12:51:00;18.60;99.90
5588;DHT22;2816;49.778;9.986;2023-05-23T12:53:29;18.60;99.90
5588;DHT22;2816;49.778;9.986;2023-05-23T12:55:56;18.50;99.90
5588;DHT22;2816;49.778;9.986;2023-05-23T12:58:23;18.50;99.90
5588;DHT22;2816;49.778;9.986;2023-05-23T13:00:52;18.40;99.90
5588;DHT22;2816;49.778;9.986;2023-05-23T13:03:18;18.50;99.90
5588;DHT22;2816;49.778;9.986;2023-05-23T13:05:45;18.60;99.90
5588;DHT22;2816;49.778;9.986;2023-05-23T13:08:12;18.60;99.90
5588;DHT22;2816;49.778;9.986;2023-05-23T13:10:39;18.60;99.90
5588;DHT22;2816;49.778;9.986;2023-05-23T13:13:06;18.60;99.90
5588;DHT22;2816;49.778;9.986;2023-05-23T13:15:33;18.50;99.90
5588;DHT22;2816;49.778;9.986;2023-05-23T13:18:02;18.40;99.90
5588;DHT22;2816;49.778;9.986;2023-05-23T13:20:29;18.30;99.90
5588;DHT22;2816;49.778;9.986;2023-05-23T13:22:56;18.40;99.90
5588;DHT22;2816;49.778;9.986;2023-05-23T13:25:24;18.40;99.90
5588;DHT22;2816;49.778;9.986;2023-05-23T13:27:52;18.40;99.90
5588;DHT22;2816;49.778;9.986;2023-05-23T13:30:20;18.30;99.90
5588;DHT22;2816;49.778;9.986;2023-05-23T13:32:47;18.10;99.90
5588;DHT22;2816;49.778;9.986;2023-05-23T13:35:16;17.90;99.90
5588;DHT22;2816;49.778;9.986;2023-05-23T13:37:43;17.90;99.90
5588;DHT22;2816;49.778;9.986;2023-05-23T13:40:12;17.80;99.90
5588;DHT22;2816;49.778;9.986;2023-05-23T13:42:42;18.00;99.90
5588;DHT22;2816;49.778;9.986;2023-05-23T13:45:09;17.90;99.90
5588;DHT22;2816;49.778;9.986;2023-05-23T13:47:37;17.80;99.90
5588;DHT22;2816;49.778;9.986;2023-05-23T13:50:05;17.70;99.90
5588;DHT22;2816;49.778;9.986;2023-05-23T13:52:34;17.90;99.90
5588;DHT22;2816;49.778;9.986;2023-05-23T13:55:01;17.90;99.90
5588;DHT22;2816;49.778;9.986;2023-05-23T13:57:29;17.90;99.90
5588;DHT22;2816;49.778;9.986;2023-05-23T13:59:56;18.00;99.90
5588;DHT22;2816;49.778;9.986;2023-05-23T14:02:23;18.10;99.90
5588;DHT22;2816;49.778;9.986;2023-05-23T14:04:51;18.10;99.90
5588;DHT22;2816;49.778;9.986;2023-05-23T14:07:18;18.20;99.90
5588;DHT22;2816;49.778;9.986;2023-05-23T14:09:46;18.20;99.90
5588;DHT22;2816;49.778;9.986;2023-05-23T14:12:13;18.10;99.90
5588;DHT22;2816;49.778;9.986;2023-05-23T14:14:40;18.10;99.90
5588;DHT22;2816;49.778;9.986;2023-05-23T14:17:13;18.10;99.90
5588;DHT22;2816;49.778;9.986;2023-05-23T14:19:40;18.00;99.90
5588;DHT22;2816;49.778;9.986;2023-05-23T14:22:07;18.20;99.90
5588;DHT22;2816;49.778;9.986;2023-05-23T14:24:34;18.30;99.90
5588;DHT22;2816;49.778;9.986;2023-05-23T14:27:02;17.90;99.90
5588;DHT22;2816;49.778;9.986;2023-05-23T14:29:29;17.90;99.90
5588;DHT22;2816;49.778;9.986;2023-05-23T14:31:56;18.00;99.90
5588;DHT22;2816;49.778;9.986;2023-05-23T14:34:25;18.10;99.90
5588;DHT22;2816;49.778;9.986;2023-05-23T14:36:52;18.00;99.90
5588;DHT22;2816;49.778;9.986;2023-05-23T14:39:19;17.90;99.90
5588;DHT22;2816;49.778;9.986;2023-05-23T14:41:46;17.70;99.90
5588;DHT22;2816;49.778;9.986;2023-05-23T14:44:14;17.80;99.90
5588;DHT22;2816;49.778;9.986;2023-05-23T14:46:41;17.70;99.90
5588;DHT22;2816;49.778;9.986;2023-05-23T14:49:12;17.70;99.90
5588;DHT22;2816;49.778;9.986;2023-05-23T14:51:39;17.70;99.90
5588;DHT22;2816;49.778;9.986;2023-05-23T14:54:06;17.60;99.90
5588;DHT22;2816;49.778;9.986;2023-05-23T14:56:34;17.60;99.90
5588;DHT22;2816;49.778;9.986;2023-05-23T14:59:02;17.40;99.90
5588;DHT22;2816;49.778;9.986;2023-05-23T15:01:30;17.30;99.90
5588;DHT22;2816;49.778;9.986;2023-05-23T15:03:57;17.50;99.90
5588;DHT22;2816;49.778;9.986;2023-05-23T15:06:24;17.50;99.90
5588;DHT22;2816;49.778;9.986;2023-05-23T15:08:51;17.30;99.90
5588;DHT22;2816;49.778;9.986;2023-05-23T15:11:18;17.30;99.90
5588;DHT22;2816;49.778;9.986;2023-05-23T15:13:46;17.10;99.90
5588;DHT22;2816;49.778;9.986;2023-05-23T15:16:12;17.00;99.90
5588;DHT22;2816;49.778;9.986;2023-05-23T15:18:42;17.00;99.90
5588;DHT22;2816;49.778;9.986;2023-05-23T15:21:09;16.90;99.90
5588;DHT22;2816;49.778;9.986;2023-05-23T15:23:36;16.90;99.90
5588;DHT22;2816;49.778;9.986;2023-05-23T15:26:03;17.10;99.90
5588;DHT22;2816;49.778;9.986;2023-05-23T15:28:30;17.20;99.90
5588;DHT22;2816;49.778;9.986;2023-05-23T15:30:57;17.20;99.90
5588;DHT22;2816;49.778;9.986;2023-05-23T15:33:24;17.20;99.90
5588;DHT22;2816;49.778;9.986;2023-05-23T15:35:52;17.10;99.90
5588;DHT22;2816;49.778;9.986;2023-05-23T15:38:20;17.00;99.90
5588;DHT22;2816;49.778;9.986;2023-05-23T15:40:47;17.00;99.90
5588;DHT22;2816;49.778;9.986;2023-05-23T15:43:17;17.00;99.90
5588;DHT22;2816;49.778;9.986;2023-05-23T15:45:43;17.00;99.90
5588;DHT22;2816;49.778;9.986;2023-05-23T15:48:10;17.10;99.90
5588;DHT22;2816;49.778;9.986;2023-05-23T15:50:37;17.20;99.90
5588;DHT22;2816;49.778;9.986;2023-05-23T15:53:06;17.30;99.90
5588;DHT22;2816;49.778;9.986;2023-05-23T15:55:33;17.50;99.90
5588;DHT22;2816;49.778;9.986;2023-05-23T15:58:00;17.50;99.90
5588;DHT22;2816;49.778;9.986;2023-05-23T16:00:27;17.50;99.90
5588;DHT22;2816;49.778;9.986;2023-05-23T16:02:54;17.20;99.90
5588;DHT22;2816;49.778;9.986;2023-05-23T16:05:21;17.20;99.90
5588;DHT22;2816;49.778;9.986;2023-05-23T16:07:48;17.20;99.90
5588;DHT22;2816;49.778;9.986;2023-05-23T16:10:17;17.20;99.90